sensor_id;sensor_type;location;lat;lon;timestamp;temperature;humidity
53643;DHT22;39546;45.534;12.048;2022-10-13T00:02:14;17.00;79.10
53643;DHT22;39546;45.534;12.048;2022-10-13T00:08:20;16.90;79.00
53643;DHT22;39546;45.534;12.048;2022-10-13T00:14:23;16.80;79.10
53643;DHT22;39546;45.534;12.048;2022-10-13T00:20:26;16.80;79.30
53643;DHT22;39546;45.534;12.048;2022-10-13T00:26:27;16.80;79.30
53643;DHT22;39546;45.534;12.048;2022-10-13T00:32:30;16.80;79.10
53643;DHT22;39546;45.534;12.048;2022-10-13T00:38:32;16.70;79.30
53643;DHT22;39546;45.534;12.048;2022-10-13T00:45:00;16.70;79.40
53643;DHT22;39546;45.534;12.048;2022-10-13T00:51:03;16.70;79.40
53643;DHT22;39546;45.534;12.048;2022-10-13T00:57:06;16.70;79.40
53643;DHT22;39546;45.534;12.048;2022-10-13T01:03:10;16.60;79.40
53643;DHT22;39546;45.534;12.048;2022-10-13T01:09:12;16.60;79.40
53643;DHT22;39546;45.534;12.048;2022-10-13T01:15:29;16.50;79.40
53643;DHT22;39546;45.534;12.048;2022-10-13T01:21:43;16.50;79.50
53643;DHT22;39546;45.534;12.048;2022-10-13T01:47:33;16.20;79.70
53643;DHT22;39546;45.534;12.048;2022-10-13T01:53:36;16.20;79.90
53643;DHT22;39546;45.534;12.048;2022-10-13T01:59:38;16.20;79.90
53643;DHT22;39546;45.534;12.048;2022-10-13T02:05:45;16.10;79.90
53643;DHT22;39546;45.534;12.048;2022-10-13T02:11:57;16.10;79.80
53643;DHT22;39546;45.534;12.048;2022-10-13T02:18:03;16.00;79.90
53643;DHT22;39546;45.534;12.048;2022-10-13T02:24:05;15.90;80.20
53643;DHT22;39546;45.534;12.048;2022-10-13T02:30:09;16.00;80.10
53643;DHT22;39546;45.534;12.048;2022-10-13T02:36:11;16.00;80.00
53643;DHT22;39546;45.534;12.048;2022-10-13T02:42:13;16.00;80.00
53643;DHT22;39546;45.534;12.048;2022-10-13T02:48:15;15.90;80.10
53643;DHT22;39546;45.534;12.048;2022-10-13T02:54:17;15.90;80.10
53643;DHT22;39546;45.534;12.048;2022-10-13T03:00:20;15.80;80.20
53643;DHT22;39546;45.534;12.048;2022-10-13T03:06:22;15.80;80.10
53643;DHT22;39546;45.534;12.048;2022-10-13T03:12:24;15.90;79.90
53643;DHT22;39546;45.534;12.048;2022-10-13T03:18:26;15.80;79.90
53643;DHT22;39546;45.534;12.048;2022-10-13T03:24:28;15.70;80.10
53643;DHT22;39546;45.534;12.048;2022-10-13T03:30:30;15.60;80.20
53643;DHT22;39546;45.534;12.048;2022-10-13T03:36:32;15.60;80.50
53643;DHT22;39546;45.534;12.048;2022-10-13T03:42:38;15.60;80.40
53643;DHT22;39546;45.534;12.048;2022-10-13T03:48:40;15.60;80.40
53643;DHT22;39546;45.534;12.048;2022-10-13T03:54:43;15.70;80.40
53643;DHT22;39546;45.534;12.048;2022-10-13T04:00:45;15.60;80.40
53643;DHT22;39546;45.534;12.048;2022-10-13T04:06:48;15.60;80.30
53643;DHT22;39546;45.534;12.048;2022-10-13T04:12:50;15.60;80.30
53643;DHT22;39546;45.534;12.048;2022-10-13T04:18:57;15.60;80.40
53643;DHT22;39546;45.534;12.048;2022-10-13T04:25:25;15.60;80.40
53643;DHT22;39546;45.534;12.048;2022-10-13T04:31:28;15.50;80.50
53643;DHT22;39546;45.534;12.048;2022-10-13T04:37:31;15.40;80.70
53643;DHT22;39546;45.534;12.048;2022-10-13T04:43:33;15.30;80.80
53643;DHT22;39546;45.534;12.048;2022-10-13T04:49:36;15.30;80.80
53643;DHT22;39546;45.534;12.048;2022-10-13T04:55:38;15.30;80.90
53643;DHT22;39546;45.534;12.048;2022-10-13T05:01:40;15.20;80.90
53643;DHT22;39546;45.534;12.048;2022-10-13T05:08:07;15.10;81.00
53643;DHT22;39546;45.534;12.048;2022-10-13T05:14:10;15.20;81.10
53643;DHT22;39546;45.534;12.048;2022-10-13T05:20:12;15.20;81.10
53643;DHT22;39546;45.534;12.048;2022-10-13T05:26:16;15.10;81.20
53643;DHT22;39546;45.534;12.048;2022-10-13T05:32:18;15.20;81.10
53643;DHT22;39546;45.534;12.048;2022-10-13T05:38:20;15.10;81.10
53643;DHT22;39546;45.534;12.048;2022-10-13T05:44:24;15.10;81.10
53643;DHT22;39546;45.534;12.048;2022-10-13T05:50:28;15.20;81.10
53643;DHT22;39546;45.534;12.048;2022-10-13T05:56:34;15.20;81.00
53643;DHT22;39546;45.534;12.048;2022-10-13T06:02:54;15.20;81.00
53643;DHT22;39546;45.534;12.048;2022-10-13T06:08:59;15.20;81.10
53643;DHT22;39546;45.534;12.048;2022-10-13T06:15:02;15.20;81.10
53643;DHT22;39546;45.534;12.048;2022-10-13T06:21:04;15.30;81.10
53643;DHT22;39546;45.534;12.048;2022-10-13T06:27:06;15.30;81.10
53643;DHT22;39546;45.534;12.048;2022-10-13T06:33:08;15.30;81.10
53643;DHT22;39546;45.534;12.048;2022-10-13T06:39:11;15.30;81.10
53643;DHT22;39546;45.534;12.048;2022-10-13T06:45:13;15.30;81.10
53643;DHT22;39546;45.534;12.048;2022-10-13T06:51:15;15.40;81.10
53643;DHT22;39546;45.534;12.048;2022-10-13T06:57:18;15.50;81.10
53643;DHT22;39546;45.534;12.048;2022-10-13T07:03:20;15.50;81.10
53643;DHT22;39546;45.534;12.048;2022-10-13T07:09:23;15.70;81.00
53643;DHT22;39546;45.534;12.048;2022-10-13T07:15:25;15.70;81.00
53643;DHT22;39546;45.534;12.048;2022-10-13T07:21:29;15.80;80.90
53643;DHT22;39546;45.534;12.048;2022-10-13T07:27:31;15.90;80.70
53643;DHT22;39546;45.534;12.048;2022-10-13T07:33:35;16.00;80.60
53643;DHT22;39546;45.534;12.048;2022-10-13T07:39:42;16.10;80.50
53643;DHT22;39546;45.534;12.048;2022-10-13T07:45:44;16.20;80.30
53643;DHT22;39546;45.534;12.048;2022-10-13T07:51:47;16.30;80.00
53643;DHT22;39546;45.534;12.048;2022-10-13T07:57:52;16.40;79.80
53643;DHT22;39546;45.534;12.048;2022-10-13T08:03:54;16.50;79.60
53643;DHT22;39546;45.534;12.048;2022-10-13T08:09:57;16.70;79.50
53643;DHT22;39546;45.534;12.048;2022-10-13T08:16:01;16.70;79.40
53643;DHT22;39546;45.534;12.048;2022-10-13T08:22:03;16.80;79.10
53643;DHT22;39546;45.534;12.048;2022-10-13T08:28:22;16.90;79.00
53643;DHT22;39546;45.534;12.048;2022-10-13T08:34:25;17.10;79.00
53643;DHT22;39546;45.534;12.048;2022-10-13T08:40:29;17.20;78.80
53643;DHT22;39546;45.534;12.048;2022-10-13T08:47:19;17.30;78.90
53643;DHT22;39546;45.534;12.048;2022-10-13T08:53:32;17.40;78.40
53643;DHT22;39546;45.534;12.048;2022-10-13T08:59:41;17.50;78.10
53643;DHT22;39546;45.534;12.048;2022-10-13T09:05:54;17.70;77.80
53643;DHT22;39546;45.534;12.048;2022-10-13T09:11:59;17.80;77.40
53643;DHT22;39546;45.534;12.048;2022-10-13T09:18:11;17.90;77.80
53643;DHT22;39546;45.534;12.048;2022-10-13T09:37:05;18.20;77.10
53643;DHT22;39546;45.534;12.048;2022-10-13T09:50:00;18.50;76.80
53643;DHT22;39546;45.534;12.048;2022-10-13T09:56:26;18.60;76.00
53643;DHT22;39546;45.534;12.048;2022-10-13T10:02:35;18.70;76.00
53643;DHT22;39546;45.534;12.048;2022-10-13T10:14:53;19.00;75.60
53643;DHT22;39546;45.534;12.048;2022-10-13T10:21:01;19.20;75.00
53643;DHT22;39546;45.534;12.048;2022-10-13T10:27:24;19.30;74.40
53643;DHT22;39546;45.534;12.048;2022-10-13T10:40:04;19.70;74.10
53643;DHT22;39546;45.534;12.048;2022-10-13T10:46:22;19.90;73.80
53643;DHT22;39546;45.534;12.048;2022-10-13T10:52:40;20.20;72.90
53643;DHT22;39546;45.534;12.048;2022-10-13T11:05:04;20.70;70.90
53643;DHT22;39546;45.534;12.048;2022-10-13T11:11:33;20.90;70.90
53643;DHT22;39546;45.534;12.048;2022-10-13T11:17:39;21.20;69.20
53643;DHT22;39546;45.534;12.048;2022-10-13T11:23:47;21.40;69.00
53643;DHT22;39546;45.534;12.048;2022-10-13T11:29:58;21.50;67.60
53643;DHT22;39546;45.534;12.048;2022-10-13T11:48:50;21.60;67.00
53643;DHT22;39546;45.534;12.048;2022-10-13T11:55:03;21.50;66.80
53643;DHT22;39546;45.534;12.048;2022-10-13T12:01:22;21.60;66.80
53643;DHT22;39546;45.534;12.048;2022-10-13T12:07:44;21.60;66.10
53643;DHT22;39546;45.534;12.048;2022-10-13T12:13:47;21.70;66.00
53643;DHT22;39546;45.534;12.048;2022-10-13T12:19:51;21.70;66.10
53643;DHT22;39546;45.534;12.048;2022-10-13T12:25:54;21.70;66.00
53643;DHT22;39546;45.534;12.048;2022-10-13T12:31:59;21.70;66.00
53643;DHT22;39546;45.534;12.048;2022-10-13T12:38:05;21.60;65.90
53643;DHT22;39546;45.534;12.048;2022-10-13T12:44:19;21.60;65.60
53643;DHT22;39546;45.534;12.048;2022-10-13T12:56:30;21.50;65.50
53643;DHT22;39546;45.534;12.048;2022-10-13T13:02:33;21.60;64.90
53643;DHT22;39546;45.534;12.048;2022-10-13T13:08:35;21.70;65.00
53643;DHT22;39546;45.534;12.048;2022-10-13T13:14:40;21.60;64.80
53643;DHT22;39546;45.534;12.048;2022-10-13T13:20:43;21.70;65.00
53643;DHT22;39546;45.534;12.048;2022-10-13T13:26:45;21.80;64.90
53643;DHT22;39546;45.534;12.048;2022-10-13T13:32:47;21.70;65.00
53643;DHT22;39546;45.534;12.048;2022-10-13T13:38:49;21.80;64.40
53643;DHT22;39546;45.534;12.048;2022-10-13T13:44:51;21.70;63.70
53643;DHT22;39546;45.534;12.048;2022-10-13T13:50:53;21.80;63.90
53643;DHT22;39546;45.534;12.048;2022-10-13T13:56:55;21.80;64.10
53643;DHT22;39546;45.534;12.048;2022-10-13T14:02:59;21.80;63.70
53643;DHT22;39546;45.534;12.048;2022-10-13T14:09:03;21.70;63.80
53643;DHT22;39546;45.534;12.048;2022-10-13T14:15:06;21.60;63.80
53643;DHT22;39546;45.534;12.048;2022-10-13T14:21:08;21.70;63.70
53643;DHT22;39546;45.534;12.048;2022-10-13T14:27:11;21.70;63.80
53643;DHT22;39546;45.534;12.048;2022-10-13T14:33:13;21.70;63.80
53643;DHT22;39546;45.534;12.048;2022-10-13T14:39:20;21.70;63.70
53643;DHT22;39546;45.534;12.048;2022-10-13T14:45:23;21.70;63.90
53643;DHT22;39546;45.534;12.048;2022-10-13T14:51:25;21.60;64.00
53643;DHT22;39546;45.534;12.048;2022-10-13T14:57:27;21.60;63.90
53643;DHT22;39546;45.534;12.048;2022-10-13T15:03:29;21.50;63.90
53643;DHT22;39546;45.534;12.048;2022-10-13T15:09:33;21.40;64.40
53643;DHT22;39546;45.534;12.048;2022-10-13T15:15:45;21.20;64.90
53643;DHT22;39546;45.534;12.048;2022-10-13T15:21:47;21.10;65.30
53643;DHT22;39546;45.534;12.048;2022-10-13T15:27:50;21.00;65.50
53643;DHT22;39546;45.534;12.048;2022-10-13T15:33:53;20.90;65.80
53643;DHT22;39546;45.534;12.048;2022-10-13T15:39:55;20.80;66.20
53643;DHT22;39546;45.534;12.048;2022-10-13T15:46:16;20.80;66.40
53643;DHT22;39546;45.534;12.048;2022-10-13T15:52:25;20.70;66.70
53643;DHT22;39546;45.534;12.048;2022-10-13T15:58:27;20.60;67.00
53643;DHT22;39546;45.534;12.048;2022-10-13T16:04:29;20.50;67.20
53643;DHT22;39546;45.534;12.048;2022-10-13T16:10:31;20.40;67.50
53643;DHT22;39546;45.534;12.048;2022-10-13T16:16:33;20.30;67.70
53643;DHT22;39546;45.534;12.048;2022-10-13T16:22:35;20.30;67.90
53643;DHT22;39546;45.534;12.048;2022-10-13T16:28:37;20.10;68.10
53643;DHT22;39546;45.534;12.048;2022-10-13T16:34:39;20.00;68.40
53643;DHT22;39546;45.534;12.048;2022-10-13T16:40:41;20.00;68.60
53643;DHT22;39546;45.534;12.048;2022-10-13T16:46:51;19.80;68.70
53643;DHT22;39546;45.534;12.048;2022-10-13T16:52:54;19.80;69.00
53643;DHT22;39546;45.534;12.048;2022-10-13T16:58:58;19.70;69.20
53643;DHT22;39546;45.534;12.048;2022-10-13T17:05:00;19.70;69.40
53643;DHT22;39546;45.534;12.048;2022-10-13T17:11:32;19.60;69.50
53643;DHT22;39546;45.534;12.048;2022-10-13T17:17:34;19.50;69.90
53643;DHT22;39546;45.534;12.048;2022-10-13T17:23:36;19.40;70.00
53643;DHT22;39546;45.534;12.048;2022-10-13T17:29:39;19.30;70.40
53643;DHT22;39546;45.534;12.048;2022-10-13T17:35:41;19.30;70.60
53643;DHT22;39546;45.534;12.048;2022-10-13T17:41:42;19.20;70.70
53643;DHT22;39546;45.534;12.048;2022-10-13T17:48:08;19.20;70.70
53643;DHT22;39546;45.534;12.048;2022-10-13T17:54:11;19.20;71.00
53643;DHT22;39546;45.534;12.048;2022-10-13T18:00:14;19.10;71.60
53643;DHT22;39546;45.534;12.048;2022-10-13T18:06:18;19.00;71.80
53643;DHT22;39546;45.534;12.048;2022-10-13T18:12:20;19.00;71.70
53643;DHT22;39546;45.534;12.048;2022-10-13T18:18:22;19.00;71.70
53643;DHT22;39546;45.534;12.048;2022-10-13T18:24:24;18.90;71.80
53643;DHT22;39546;45.534;12.048;2022-10-13T18:30:27;18.90;72.00
53643;DHT22;39546;45.534;12.048;2022-10-13T18:36:32;18.80;72.50
53643;DHT22;39546;45.534;12.048;2022-10-13T18:42:34;18.80;72.60
53643;DHT22;39546;45.534;12.048;2022-10-13T18:48:36;18.80;72.60
53643;DHT22;39546;45.534;12.048;2022-10-13T18:54:38;18.80;72.90
53643;DHT22;39546;45.534;12.048;2022-10-13T19:00:40;18.70;73.10
53643;DHT22;39546;45.534;12.048;2022-10-13T19:06:43;18.70;73.70
53643;DHT22;39546;45.534;12.048;2022-10-13T19:12:45;18.60;74.30
53643;DHT22;39546;45.534;12.048;2022-10-13T19:18:47;18.50;74.50
53643;DHT22;39546;45.534;12.048;2022-10-13T19:24:50;18.50;74.40
53643;DHT22;39546;45.534;12.048;2022-10-13T19:30:54;18.40;74.50
53643;DHT22;39546;45.534;12.048;2022-10-13T19:36:57;18.30;74.80
53643;DHT22;39546;45.534;12.048;2022-10-13T19:43:02;18.30;74.90
53643;DHT22;39546;45.534;12.048;2022-10-13T19:49:05;18.40;75.10
53643;DHT22;39546;45.534;12.048;2022-10-13T19:55:09;18.30;75.10
53643;DHT22;39546;45.534;12.048;2022-10-13T20:01:11;18.20;75.10
53643;DHT22;39546;45.534;12.048;2022-10-13T20:07:13;18.20;75.30
53643;DHT22;39546;45.534;12.048;2022-10-13T20:13:23;18.20;75.30
53643;DHT22;39546;45.534;12.048;2022-10-13T20:19:46;18.10;75.40
53643;DHT22;39546;45.534;12.048;2022-10-13T20:25:48;18.20;75.60
53643;DHT22;39546;45.534;12.048;2022-10-13T20:31:50;18.10;76.00
53643;DHT22;39546;45.534;12.048;2022-10-13T20:37:54;18.10;76.20
53643;DHT22;39546;45.534;12.048;2022-10-13T20:43:57;18.00;76.40
53643;DHT22;39546;45.534;12.048;2022-10-13T20:50:00;18.00;76.40
53643;DHT22;39546;45.534;12.048;2022-10-13T20:56:04;18.00;76.50
53643;DHT22;39546;45.534;12.048;2022-10-13T21:02:32;17.90;77.00
53643;DHT22;39546;45.534;12.048;2022-10-13T21:08:34;17.80;76.90
53643;DHT22;39546;45.534;12.048;2022-10-13T21:14:37;17.80;76.90
53643;DHT22;39546;45.534;12.048;2022-10-13T21:20:48;17.80;77.20
53643;DHT22;39546;45.534;12.048;2022-10-13T21:27:09;17.80;77.70
53643;DHT22;39546;45.534;12.048;2022-10-13T21:33:11;17.80;77.70
53643;DHT22;39546;45.534;12.048;2022-10-13T21:39:13;17.70;77.70
53643;DHT22;39546;45.534;12.048;2022-10-13T21:45:15;17.70;77.90
53643;DHT22;39546;45.534;12.048;2022-10-13T21:51:24;17.70;77.80
53643;DHT22;39546;45.534;12.048;2022-10-13T21:57:26;17.70;78.10
53643;DHT22;39546;45.534;12.048;2022-10-13T22:03:29;17.60;78.40
53643;DHT22;39546;45.534;12.048;2022-10-13T22:09:34;17.70;78.40
53643;DHT22;39546;45.534;12.048;2022-10-13T22:15:37;17.70;78.30
53643;DHT22;39546;45.534;12.048;2022-10-13T22:21:42;17.60;78.20
53643;DHT22;39546;45.534;12.048;2022-10-13T22:27:44;17.60;78.30
53643;DHT22;39546;45.534;12.048;2022-10-13T22:33:47;17.50;78.20
53643;DHT22;39546;45.534;12.048;2022-10-13T22:39:49;17.60;78.20
53643;DHT22;39546;45.534;12.048;2022-10-13T22:45:51;17.50;78.20
53643;DHT22;39546;45.534;12.048;2022-10-13T22:51:53;17.40;78.30
53643;DHT22;39546;45.534;12.048;2022-10-13T22:57:55;17.50;78.60
53643;DHT22;39546;45.534;12.048;2022-10-13T23:03:58;17.50;79.10
53643;DHT22;39546;45.534;12.048;2022-10-13T23:10:00;17.50;79.10
53643;DHT22;39546;45.534;12.048;2022-10-13T23:16:17;17.40;79.00
53643;DHT22;39546;45.534;12.048;2022-10-13T23:22:22;17.30;79.20
53643;DHT22;39546;45.534;12.048;2022-10-13T23:28:24;17.30;79.60
53643;DHT22;39546;45.534;12.048;2022-10-13T23:34:26;17.20;80.00
53643;DHT22;39546;45.534;12.048;2022-10-13T23:40:29;17.20;79.90
53643;DHT22;39546;45.534;12.048;2022-10-13T23:46:31;17.20;79.90
53643;DHT22;39546;45.534;12.048;2022-10-13T23:52:33;17.20;80.00
53643;DHT22;39546;45.534;12.048;2022-10-13T23:59:00;17.20;80.10
